sensor_id;sensor_type;location;lat;lon;timestamp;P1;durP1;ratioP1;P2;durP2;ratioP2
22955;SDS011;40888;48.148;11.526;2022-08-19T00:01:49;6.13;;;4.28;;
22955;SDS011;40888;48.148;11.526;2022-08-19T00:04:17;5.18;;;4.15;;
22955;SDS011;40888;48.148;11.526;2022-08-19T00:06:44;4.90;;;4.28;;
22955;SDS011;40888;48.148;11.526;2022-08-19T00:09:12;5.20;;;4.47;;
22955;SDS011;40888;48.148;11.526;2022-08-19T00:11:39;5.40;;;4.90;;
22955;SDS011;40888;48.148;11.526;2022-08-19T00:14:06;5.57;;;4.90;;
22955;SDS011;40888;48.148;11.526;2022-08-19T00:16:35;5.15;;;4.65;;
22955;SDS011;40888;48.148;11.526;2022-08-19T00:19:01;5.55;;;5.05;;
22955;SDS011;40888;48.148;11.526;2022-08-19T00:21:28;6.68;;;5.53;;
22955;SDS011;40888;48.148;11.526;2022-08-19T00:23:54;6.43;;;5.38;;
22955;SDS011;40888;48.148;11.526;2022-08-19T00:26:24;5.80;;;5.18;;
22955;SDS011;40888;48.148;11.526;2022-08-19T00:28:50;6.50;;;4.85;;
22955;SDS011;40888;48.148;11.526;2022-08-19T00:31:17;5.95;;;5.35;;
22955;SDS011;40888;48.148;11.526;2022-08-19T00:33:43;6.32;;;5.70;;
22955;SDS011;40888;48.148;11.526;2022-08-19T00:36:09;6.78;;;5.80;;
22955;SDS011;40888;48.148;11.526;2022-08-19T00:38:37;6.65;;;6.05;;
22955;SDS011;40888;48.148;11.526;2022-08-19T00:41:06;7.30;;;6.43;;
22955;SDS011;40888;48.148;11.526;2022-08-19T00:43:33;6.40;;;5.72;;
22955;SDS011;40888;48.148;11.526;2022-08-19T00:45:59;6.85;;;6.07;;
22955;SDS011;40888;48.148;11.526;2022-08-19T00:48:27;7.10;;;6.40;;
22955;SDS011;40888;48.148;11.526;2022-08-19T00:50:54;9.52;;;7.20;;
22955;SDS011;40888;48.148;11.526;2022-08-19T00:53:22;7.55;;;6.72;;
22955;SDS011;40888;48.148;11.526;2022-08-19T00:55:49;8.32;;;7.45;;
22955;SDS011;40888;48.148;11.526;2022-08-19T00:58:16;8.35;;;7.47;;
22955;SDS011;40888;48.148;11.526;2022-08-19T01:00:43;8.02;;;6.80;;
22955;SDS011;40888;48.148;11.526;2022-08-19T01:03:12;8.20;;;7.20;;
22955;SDS011;40888;48.148;11.526;2022-08-19T01:05:39;9.43;;;7.70;;
22955;SDS011;40888;48.148;11.526;2022-08-19T01:08:05;9.73;;;7.82;;
22955;SDS011;40888;48.148;11.526;2022-08-19T01:10:33;8.75;;;7.85;;
22955;SDS011;40888;48.148;11.526;2022-08-19T01:13:01;9.43;;;7.85;;
22955;SDS011;40888;48.148;11.526;2022-08-19T01:15:34;9.05;;;8.15;;
22955;SDS011;40888;48.148;11.526;2022-08-19T01:18:02;8.35;;;7.43;;
22955;SDS011;40888;48.148;11.526;2022-08-19T01:20:30;9.18;;;8.27;;
22955;SDS011;40888;48.148;11.526;2022-08-19T01:22:57;9.32;;;8.32;;
22955;SDS011;40888;48.148;11.526;2022-08-19T01:25:25;10.98;;;8.93;;
22955;SDS011;40888;48.148;11.526;2022-08-19T01:27:52;10.85;;;8.45;;
22955;SDS011;40888;48.148;11.526;2022-08-19T01:30:21;12.18;;;9.13;;
22955;SDS011;40888;48.148;11.526;2022-08-19T01:32:48;11.70;;;10.02;;
22955;SDS011;40888;48.148;11.526;2022-08-19T01:35:14;10.35;;;9.20;;
22955;SDS011;40888;48.148;11.526;2022-08-19T01:37:43;10.85;;;9.73;;
22955;SDS011;40888;48.148;11.526;2022-08-19T01:40:10;12.00;;;10.05;;
22955;SDS011;40888;48.148;11.526;2022-08-19T01:42:36;10.50;;;9.35;;
22955;SDS011;40888;48.148;11.526;2022-08-19T01:45:03;10.25;;;8.88;;
22955;SDS011;40888;48.148;11.526;2022-08-19T01:47:30;9.82;;;8.75;;
22955;SDS011;40888;48.148;11.526;2022-08-19T01:49:57;11.48;;;8.88;;
22955;SDS011;40888;48.148;11.526;2022-08-19T01:52:24;10.30;;;9.25;;
22955;SDS011;40888;48.148;11.526;2022-08-19T01:54:50;10.88;;;9.32;;
22955;SDS011;40888;48.148;11.526;2022-08-19T01:57:16;9.88;;;8.13;;
22955;SDS011;40888;48.148;11.526;2022-08-19T01:59:42;10.13;;;8.52;;
22955;SDS011;40888;48.148;11.526;2022-08-19T02:02:09;9.55;;;8.18;;
22955;SDS011;40888;48.148;11.526;2022-08-19T02:04:35;11.85;;;7.85;;
22955;SDS011;40888;48.148;11.526;2022-08-19T02:07:03;9.07;;;8.02;;
22955;SDS011;40888;48.148;11.526;2022-08-19T02:09:30;8.77;;;7.88;;
22955;SDS011;40888;48.148;11.526;2022-08-19T02:11:56;8.90;;;7.93;;
22955;SDS011;40888;48.148;11.526;2022-08-19T02:14:22;8.10;;;7.30;;
22955;SDS011;40888;48.148;11.526;2022-08-19T02:16:48;8.63;;;7.82;;
22955;SDS011;40888;48.148;11.526;2022-08-19T02:19:14;9.75;;;7.93;;
22955;SDS011;40888;48.148;11.526;2022-08-19T02:21:41;10.25;;;7.40;;
22955;SDS011;40888;48.148;11.526;2022-08-19T02:24:09;9.13;;;7.18;;
22955;SDS011;40888;48.148;11.526;2022-08-19T02:26:35;8.60;;;7.70;;
22955;SDS011;40888;48.148;11.526;2022-08-19T02:29:02;8.15;;;7.28;;
22955;SDS011;40888;48.148;11.526;2022-08-19T02:31:28;7.55;;;6.63;;
22955;SDS011;40888;48.148;11.526;2022-08-19T02:33:55;8.82;;;7.82;;
22955;SDS011;40888;48.148;11.526;2022-08-19T02:36:21;8.95;;;7.20;;
22955;SDS011;40888;48.148;11.526;2022-08-19T02:38:47;10.35;;;7.97;;
22955;SDS011;40888;48.148;11.526;2022-08-19T02:41:16;8.30;;;6.72;;
22955;SDS011;40888;48.148;11.526;2022-08-19T02:43:42;8.05;;;6.80;;
22955;SDS011;40888;48.148;11.526;2022-08-19T02:46:16;8.25;;;7.25;;
22955;SDS011;40888;48.148;11.526;2022-08-19T02:48:43;7.55;;;6.80;;
22955;SDS011;40888;48.148;11.526;2022-08-19T02:51:09;7.05;;;6.32;;
22955;SDS011;40888;48.148;11.526;2022-08-19T02:53:41;7.30;;;6.60;;
22955;SDS011;40888;48.148;11.526;2022-08-19T02:56:07;6.70;;;6.10;;
22955;SDS011;40888;48.148;11.526;2022-08-19T02:58:33;7.85;;;7.07;;
22955;SDS011;40888;48.148;11.526;2022-08-19T03:00:59;8.25;;;7.35;;
22955;SDS011;40888;48.148;11.526;2022-08-19T03:03:26;10.13;;;7.25;;
22955;SDS011;40888;48.148;11.526;2022-08-19T03:06:01;7.50;;;6.70;;
22955;SDS011;40888;48.148;11.526;2022-08-19T03:08:27;7.57;;;6.78;;
22955;SDS011;40888;48.148;11.526;2022-08-19T03:10:54;8.73;;;7.35;;
22955;SDS011;40888;48.148;11.526;2022-08-19T03:13:20;7.30;;;6.60;;
22955;SDS011;40888;48.148;11.526;2022-08-19T03:15:46;6.80;;;6.10;;
22955;SDS011;40888;48.148;11.526;2022-08-19T03:18:14;9.80;;;7.18;;
22955;SDS011;40888;48.148;11.526;2022-08-19T03:20:41;7.53;;;6.45;;
22955;SDS011;40888;48.148;11.526;2022-08-19T03:23:07;6.95;;;6.18;;
22955;SDS011;40888;48.148;11.526;2022-08-19T03:25:40;6.43;;;5.75;;
22955;SDS011;40888;48.148;11.526;2022-08-19T03:28:08;8.32;;;5.97;;
22955;SDS011;40888;48.148;11.526;2022-08-19T03:30:35;9.05;;;6.18;;
22955;SDS011;40888;48.148;11.526;2022-08-19T03:33:01;6.43;;;5.75;;
22955;SDS011;40888;48.148;11.526;2022-08-19T03:35:27;7.53;;;5.82;;
22955;SDS011;40888;48.148;11.526;2022-08-19T03:37:53;6.45;;;5.75;;
22955;SDS011;40888;48.148;11.526;2022-08-19T03:40:21;6.32;;;5.47;;
22955;SDS011;40888;48.148;11.526;2022-08-19T03:42:47;6.90;;;5.30;;
22955;SDS011;40888;48.148;11.526;2022-08-19T03:45:14;5.53;;;5.00;;
22955;SDS011;40888;48.148;11.526;2022-08-19T03:47:40;7.40;;;5.78;;
22955;SDS011;40888;48.148;11.526;2022-08-19T03:50:06;6.00;;;5.40;;
22955;SDS011;40888;48.148;11.526;2022-08-19T03:52:34;5.82;;;5.32;;
22955;SDS011;40888;48.148;11.526;2022-08-19T03:55:01;7.07;;;5.55;;
22955;SDS011;40888;48.148;11.526;2022-08-19T03:57:27;8.55;;;6.05;;
22955;SDS011;40888;48.148;11.526;2022-08-19T03:59:54;8.45;;;5.65;;
22955;SDS011;40888;48.148;11.526;2022-08-19T04:02:20;7.13;;;6.35;;
22955;SDS011;40888;48.148;11.526;2022-08-19T04:04:46;6.38;;;5.70;;
22955;SDS011;40888;48.148;11.526;2022-08-19T04:07:13;9.25;;;7.47;;
22955;SDS011;40888;48.148;11.526;2022-08-19T04:09:46;8.27;;;7.43;;
22955;SDS011;40888;48.148;11.526;2022-08-19T04:12:13;9.23;;;7.50;;
22955;SDS011;40888;48.148;11.526;2022-08-19T04:14:40;8.02;;;7.22;;
22955;SDS011;40888;48.148;11.526;2022-08-19T04:17:06;8.95;;;7.80;;
22955;SDS011;40888;48.148;11.526;2022-08-19T04:19:33;9.05;;;7.85;;
22955;SDS011;40888;48.148;11.526;2022-08-19T04:22:00;8.75;;;7.22;;
22955;SDS011;40888;48.148;11.526;2022-08-19T04:24:26;10.02;;;8.10;;
22955;SDS011;40888;48.148;11.526;2022-08-19T04:26:53;9.15;;;8.23;;
22955;SDS011;40888;48.148;11.526;2022-08-19T04:29:21;10.48;;;8.07;;
22955;SDS011;40888;48.148;11.526;2022-08-19T04:31:49;9.30;;;8.27;;
22955;SDS011;40888;48.148;11.526;2022-08-19T04:34:16;9.43;;;7.88;;
22955;SDS011;40888;48.148;11.526;2022-08-19T04:36:43;10.07;;;8.18;;
22955;SDS011;40888;48.148;11.526;2022-08-19T04:39:11;11.65;;;8.77;;
22955;SDS011;40888;48.148;11.526;2022-08-19T04:41:37;10.32;;;8.20;;
22955;SDS011;40888;48.148;11.526;2022-08-19T04:44:23;10.77;;;9.23;;
22955;SDS011;40888;48.148;11.526;2022-08-19T04:46:49;10.52;;;8.63;;
22955;SDS011;40888;48.148;11.526;2022-08-19T04:49:16;11.18;;;8.25;;
22955;SDS011;40888;48.148;11.526;2022-08-19T04:51:44;9.80;;;7.93;;
22955;SDS011;40888;48.148;11.526;2022-08-19T04:54:10;9.18;;;7.85;;
22955;SDS011;40888;48.148;11.526;2022-08-19T04:56:38;11.05;;;9.45;;
22955;SDS011;40888;48.148;11.526;2022-08-19T04:59:04;12.80;;;8.52;;
22955;SDS011;40888;48.148;11.526;2022-08-19T05:01:31;13.07;;;9.05;;
22955;SDS011;40888;48.148;11.526;2022-08-19T05:03:58;10.05;;;7.88;;
22955;SDS011;40888;48.148;11.526;2022-08-19T05:06:25;9.73;;;8.73;;
22955;SDS011;40888;48.148;11.526;2022-08-19T05:08:51;10.43;;;8.40;;
22955;SDS011;40888;48.148;11.526;2022-08-19T05:11:19;10.27;;;8.45;;
22955;SDS011;40888;48.148;11.526;2022-08-19T05:13:46;9.65;;;8.65;;
22955;SDS011;40888;48.148;11.526;2022-08-19T05:16:14;12.20;;;9.48;;
22955;SDS011;40888;48.148;11.526;2022-08-19T05:18:41;10.80;;;9.02;;
22955;SDS011;40888;48.148;11.526;2022-08-19T05:21:26;9.85;;;8.85;;
22955;SDS011;40888;48.148;11.526;2022-08-19T05:24:12;8.43;;;7.45;;
22955;SDS011;40888;48.148;11.526;2022-08-19T05:26:39;9.23;;;8.13;;
22955;SDS011;40888;48.148;11.526;2022-08-19T05:29:06;10.02;;;8.05;;
22955;SDS011;40888;48.148;11.526;2022-08-19T05:31:34;8.57;;;7.20;;
22955;SDS011;40888;48.148;11.526;2022-08-19T05:34:00;9.68;;;8.30;;
22955;SDS011;40888;48.148;11.526;2022-08-19T05:36:27;9.57;;;7.95;;
22955;SDS011;40888;48.148;11.526;2022-08-19T05:38:53;11.35;;;8.23;;
22955;SDS011;40888;48.148;11.526;2022-08-19T05:41:20;10.60;;;9.48;;
22955;SDS011;40888;48.148;11.526;2022-08-19T05:43:48;9.77;;;8.77;;
22955;SDS011;40888;48.148;11.526;2022-08-19T05:46:16;9.73;;;8.13;;
22955;SDS011;40888;48.148;11.526;2022-08-19T05:48:43;8.50;;;7.70;;
22955;SDS011;40888;48.148;11.526;2022-08-19T05:51:09;11.45;;;9.65;;
22955;SDS011;40888;48.148;11.526;2022-08-19T05:53:36;9.43;;;8.50;;
22955;SDS011;40888;48.148;11.526;2022-08-19T05:56:13;9.52;;;8.32;;
22955;SDS011;40888;48.148;11.526;2022-08-19T05:58:43;10.52;;;8.45;;
22955;SDS011;40888;48.148;11.526;2022-08-19T06:01:14;9.35;;;8.35;;
22955;SDS011;40888;48.148;11.526;2022-08-19T06:03:41;12.02;;;8.18;;
22955;SDS011;40888;48.148;11.526;2022-08-19T06:06:07;9.85;;;8.60;;
22955;SDS011;40888;48.148;11.526;2022-08-19T06:08:34;11.60;;;9.18;;
22955;SDS011;40888;48.148;11.526;2022-08-19T06:14:02;10.00;;;8.80;;
22955;SDS011;40888;48.148;11.526;2022-08-19T06:16:28;10.55;;;8.30;;
22955;SDS011;40888;48.148;11.526;2022-08-19T06:18:57;10.65;;;9.55;;
22955;SDS011;40888;48.148;11.526;2022-08-19T06:21:25;10.77;;;9.65;;
22955;SDS011;40888;48.148;11.526;2022-08-19T06:23:52;11.90;;;10.23;;
22955;SDS011;40888;48.148;11.526;2022-08-19T06:26:20;12.38;;;10.43;;
22955;SDS011;40888;48.148;11.526;2022-08-19T06:28:47;13.60;;;9.73;;
22955;SDS011;40888;48.148;11.526;2022-08-19T06:31:14;13.45;;;10.23;;
22955;SDS011;40888;48.148;11.526;2022-08-19T06:33:41;12.88;;;10.60;;
22955;SDS011;40888;48.148;11.526;2022-08-19T06:36:15;12.38;;;10.57;;
22955;SDS011;40888;48.148;11.526;2022-08-19T06:38:41;12.88;;;10.38;;
22955;SDS011;40888;48.148;11.526;2022-08-19T06:41:07;11.70;;;10.43;;
22955;SDS011;40888;48.148;11.526;2022-08-19T06:43:34;13.55;;;11.75;;
22955;SDS011;40888;48.148;11.526;2022-08-19T06:46:01;13.65;;;11.45;;
22955;SDS011;40888;48.148;11.526;2022-08-19T06:48:29;14.30;;;11.82;;
22955;SDS011;40888;48.148;11.526;2022-08-19T06:50:55;14.00;;;11.10;;
22955;SDS011;40888;48.148;11.526;2022-08-19T06:53:21;14.82;;;12.15;;
22955;SDS011;40888;48.148;11.526;2022-08-19T06:55:47;14.82;;;13.13;;
22955;SDS011;40888;48.148;11.526;2022-08-19T06:58:29;15.70;;;12.60;;
22955;SDS011;40888;48.148;11.526;2022-08-19T07:01:03;14.00;;;12.60;;
22955;SDS011;40888;48.148;11.526;2022-08-19T07:03:30;13.73;;;11.70;;
22955;SDS011;40888;48.148;11.526;2022-08-19T07:05:57;14.13;;;12.30;;
22955;SDS011;40888;48.148;11.526;2022-08-19T07:08:24;15.02;;;13.02;;
22955;SDS011;40888;48.148;11.526;2022-08-19T07:10:52;13.50;;;11.70;;
22955;SDS011;40888;48.148;11.526;2022-08-19T07:13:18;16.80;;;12.18;;
22955;SDS011;40888;48.148;11.526;2022-08-19T07:15:44;13.57;;;12.02;;
22955;SDS011;40888;48.148;11.526;2022-08-19T07:18:12;16.65;;;13.27;;
22955;SDS011;40888;48.148;11.526;2022-08-19T07:20:38;14.02;;;12.15;;
22955;SDS011;40888;48.148;11.526;2022-08-19T07:23:05;15.07;;;12.85;;
22955;SDS011;40888;48.148;11.526;2022-08-19T07:25:31;16.92;;;12.95;;
22955;SDS011;40888;48.148;11.526;2022-08-19T07:27:57;15.20;;;13.60;;
22955;SDS011;40888;48.148;11.526;2022-08-19T07:30:23;16.27;;;14.50;;
22955;SDS011;40888;48.148;11.526;2022-08-19T07:32:49;21.58;;;15.90;;
22955;SDS011;40888;48.148;11.526;2022-08-19T07:35:17;18.70;;;15.32;;
22955;SDS011;40888;48.148;11.526;2022-08-19T07:37:44;20.25;;;16.42;;
22955;SDS011;40888;48.148;11.526;2022-08-19T07:40:11;16.80;;;14.95;;
22955;SDS011;40888;48.148;11.526;2022-08-19T07:42:38;20.55;;;16.63;;
22955;SDS011;40888;48.148;11.526;2022-08-19T07:45:04;21.75;;;16.75;;
22955;SDS011;40888;48.148;11.526;2022-08-19T07:47:32;21.08;;;17.02;;
22955;SDS011;40888;48.148;11.526;2022-08-19T07:49:58;18.35;;;15.63;;
22955;SDS011;40888;48.148;11.526;2022-08-19T07:52:24;20.55;;;16.95;;
22955;SDS011;40888;48.148;11.526;2022-08-19T07:54:50;18.52;;;15.57;;
22955;SDS011;40888;48.148;11.526;2022-08-19T07:57:17;21.00;;;17.73;;
22955;SDS011;40888;48.148;11.526;2022-08-19T07:59:44;22.58;;;17.73;;
22955;SDS011;40888;48.148;11.526;2022-08-19T08:02:10;22.13;;;17.80;;
22955;SDS011;40888;48.148;11.526;2022-08-19T08:04:36;20.73;;;16.10;;
22955;SDS011;40888;48.148;11.526;2022-08-19T08:07:21;21.90;;;16.77;;
22955;SDS011;40888;48.148;11.526;2022-08-19T08:10:06;20.00;;;16.98;;
22955;SDS011;40888;48.148;11.526;2022-08-19T08:12:34;18.60;;;16.35;;
22955;SDS011;40888;48.148;11.526;2022-08-19T08:15:03;23.98;;;18.98;;
22955;SDS011;40888;48.148;11.526;2022-08-19T08:17:30;19.92;;;17.02;;
22955;SDS011;40888;48.148;11.526;2022-08-19T08:19:57;21.15;;;17.88;;
22955;SDS011;40888;48.148;11.526;2022-08-19T08:22:23;23.30;;;16.90;;
22955;SDS011;40888;48.148;11.526;2022-08-19T08:27:38;24.20;;;18.65;;
22955;SDS011;40888;48.148;11.526;2022-08-19T08:30:12;24.45;;;19.50;;
22955;SDS011;40888;48.148;11.526;2022-08-19T08:32:39;25.00;;;20.30;;
22955;SDS011;40888;48.148;11.526;2022-08-19T08:35:06;24.17;;;19.10;;
22955;SDS011;40888;48.148;11.526;2022-08-19T08:37:32;21.02;;;17.40;;
22955;SDS011;40888;48.148;11.526;2022-08-19T08:39:58;24.52;;;19.30;;
22955;SDS011;40888;48.148;11.526;2022-08-19T08:42:30;24.95;;;18.77;;
22955;SDS011;40888;48.148;11.526;2022-08-19T08:44:59;27.17;;;20.95;;
22955;SDS011;40888;48.148;11.526;2022-08-19T08:47:29;27.02;;;21.73;;
22955;SDS011;40888;48.148;11.526;2022-08-19T08:50:02;27.27;;;21.02;;
22955;SDS011;40888;48.148;11.526;2022-08-19T08:52:30;30.50;;;20.83;;
22955;SDS011;40888;48.148;11.526;2022-08-19T08:55:03;24.38;;;19.00;;
22955;SDS011;40888;48.148;11.526;2022-08-19T09:00:15;27.30;;;21.17;;
22955;SDS011;40888;48.148;11.526;2022-08-19T09:02:43;26.55;;;20.27;;
22955;SDS011;40888;48.148;11.526;2022-08-19T09:05:09;30.25;;;22.13;;
22955;SDS011;40888;48.148;11.526;2022-08-19T09:12:57;33.38;;;21.70;;
22955;SDS011;40888;48.148;11.526;2022-08-19T09:15:28;29.45;;;22.83;;
22955;SDS011;40888;48.148;11.526;2022-08-19T09:17:58;29.85;;;22.25;;
22955;SDS011;40888;48.148;11.526;2022-08-19T09:20:24;31.75;;;23.00;;
22955;SDS011;40888;48.148;11.526;2022-08-19T09:22:51;29.30;;;21.70;;
22955;SDS011;40888;48.148;11.526;2022-08-19T09:25:18;30.30;;;23.02;;
22955;SDS011;40888;48.148;11.526;2022-08-19T09:27:46;27.00;;;21.33;;
22955;SDS011;40888;48.148;11.526;2022-08-19T09:30:15;30.90;;;22.52;;
22955;SDS011;40888;48.148;11.526;2022-08-19T09:32:41;28.55;;;20.00;;
22955;SDS011;40888;48.148;11.526;2022-08-19T09:35:08;25.38;;;18.70;;
22955;SDS011;40888;48.148;11.526;2022-08-19T09:37:34;28.63;;;19.67;;
22955;SDS011;40888;48.148;11.526;2022-08-19T09:40:02;26.65;;;18.73;;
22955;SDS011;40888;48.148;11.526;2022-08-19T09:42:28;27.52;;;19.55;;
22955;SDS011;40888;48.148;11.526;2022-08-19T09:44:54;25.52;;;19.75;;
22955;SDS011;40888;48.148;11.526;2022-08-19T09:47:20;24.95;;;18.27;;
22955;SDS011;40888;48.148;11.526;2022-08-19T09:49:46;25.23;;;19.02;;
22955;SDS011;40888;48.148;11.526;2022-08-19T09:52:15;24.08;;;17.60;;
22955;SDS011;40888;48.148;11.526;2022-08-19T09:54:43;24.35;;;18.20;;
22955;SDS011;40888;48.148;11.526;2022-08-19T09:57:09;20.90;;;15.90;;
22955;SDS011;40888;48.148;11.526;2022-08-19T09:59:35;21.98;;;16.55;;
22955;SDS011;40888;48.148;11.526;2022-08-19T10:02:02;21.73;;;16.45;;
22955;SDS011;40888;48.148;11.526;2022-08-19T10:04:28;20.17;;;16.02;;
22955;SDS011;40888;48.148;11.526;2022-08-19T10:07:14;22.90;;;16.92;;
22955;SDS011;40888;48.148;11.526;2022-08-19T10:09:40;24.10;;;17.88;;
22955;SDS011;40888;48.148;11.526;2022-08-19T10:12:06;24.73;;;18.58;;
22955;SDS011;40888;48.148;11.526;2022-08-19T10:14:32;24.17;;;18.45;;
22955;SDS011;40888;48.148;11.526;2022-08-19T10:16:59;27.98;;;19.33;;
22955;SDS011;40888;48.148;11.526;2022-08-19T10:19:25;23.95;;;18.27;;
22955;SDS011;40888;48.148;11.526;2022-08-19T10:21:55;24.35;;;18.15;;
22955;SDS011;40888;48.148;11.526;2022-08-19T10:24:21;25.95;;;18.92;;
22955;SDS011;40888;48.148;11.526;2022-08-19T10:26:49;24.98;;;18.27;;
22955;SDS011;40888;48.148;11.526;2022-08-19T10:29:15;23.02;;;18.00;;
22955;SDS011;40888;48.148;11.526;2022-08-19T10:31:41;24.02;;;17.38;;
22955;SDS011;40888;48.148;11.526;2022-08-19T10:34:08;21.58;;;16.92;;
22955;SDS011;40888;48.148;11.526;2022-08-19T10:36:35;21.80;;;15.25;;
22955;SDS011;40888;48.148;11.526;2022-08-19T10:39:06;19.92;;;14.93;;
22955;SDS011;40888;48.148;11.526;2022-08-19T10:41:33;23.00;;;16.88;;
22955;SDS011;40888;48.148;11.526;2022-08-19T10:44:01;22.80;;;16.45;;
22955;SDS011;40888;48.148;11.526;2022-08-19T10:46:28;20.15;;;15.63;;
22955;SDS011;40888;48.148;11.526;2022-08-19T10:48:58;21.70;;;16.13;;
22955;SDS011;40888;48.148;11.526;2022-08-19T10:51:24;20.80;;;14.73;;
22955;SDS011;40888;48.148;11.526;2022-08-19T10:54:09;18.30;;;14.32;;
22955;SDS011;40888;48.148;11.526;2022-08-19T10:56:35;15.98;;;12.63;;
22955;SDS011;40888;48.148;11.526;2022-08-19T11:01:44;14.70;;;12.38;;
22955;SDS011;40888;48.148;11.526;2022-08-19T11:04:11;14.40;;;11.93;;
22955;SDS011;40888;48.148;11.526;2022-08-19T11:06:41;17.15;;;13.40;;
22955;SDS011;40888;48.148;11.526;2022-08-19T11:09:08;16.48;;;13.20;;
22955;SDS011;40888;48.148;11.526;2022-08-19T11:11:36;18.63;;;14.00;;
22955;SDS011;40888;48.148;11.526;2022-08-19T11:14:06;14.68;;;12.27;;
22955;SDS011;40888;48.148;11.526;2022-08-19T11:16:32;14.23;;;12.02;;
22955;SDS011;40888;48.148;11.526;2022-08-19T11:18:58;12.52;;;10.75;;
22955;SDS011;40888;48.148;11.526;2022-08-19T11:21:30;13.57;;;11.55;;
22955;SDS011;40888;48.148;11.526;2022-08-19T11:23:57;12.25;;;10.27;;
22955;SDS011;40888;48.148;11.526;2022-08-19T11:26:24;8.63;;;7.55;;
22955;SDS011;40888;48.148;11.526;2022-08-19T11:28:50;6.80;;;5.97;;
22955;SDS011;40888;48.148;11.526;2022-08-19T11:31:20;4.50;;;4.00;;
22955;SDS011;40888;48.148;11.526;2022-08-19T11:33:46;5.47;;;4.70;;
22955;SDS011;40888;48.148;11.526;2022-08-19T11:36:16;6.28;;;4.18;;
22955;SDS011;40888;48.148;11.526;2022-08-19T11:38:43;4.22;;;3.83;;
22955;SDS011;40888;48.148;11.526;2022-08-19T11:41:10;3.97;;;3.58;;
22955;SDS011;40888;48.148;11.526;2022-08-19T11:43:36;3.95;;;3.55;;
22955;SDS011;40888;48.148;11.526;2022-08-19T11:46:08;4.18;;;3.75;;
22955;SDS011;40888;48.148;11.526;2022-08-19T11:48:35;6.45;;;4.50;;
22955;SDS011;40888;48.148;11.526;2022-08-19T11:51:09;3.60;;;3.30;;
22955;SDS011;40888;48.148;11.526;2022-08-19T11:53:35;3.72;;;3.42;;
22955;SDS011;40888;48.148;11.526;2022-08-19T11:56:02;2.88;;;2.63;;
22955;SDS011;40888;48.148;11.526;2022-08-19T11:58:29;2.92;;;2.70;;
22955;SDS011;40888;48.148;11.526;2022-08-19T12:00:55;2.00;;;1.90;;
22955;SDS011;40888;48.148;11.526;2022-08-19T12:03:21;3.20;;;2.10;;
22955;SDS011;40888;48.148;11.526;2022-08-19T12:05:47;2.70;;;1.67;;
22955;SDS011;40888;48.148;11.526;2022-08-19T12:08:15;2.17;;;2.00;;
22955;SDS011;40888;48.148;11.526;2022-08-19T12:10:41;1.73;;;1.63;;
22955;SDS011;40888;48.148;11.526;2022-08-19T12:13:08;2.20;;;2.00;;
22955;SDS011;40888;48.148;11.526;2022-08-19T12:15:36;3.15;;;2.10;;
22955;SDS011;40888;48.148;11.526;2022-08-19T12:18:03;1.70;;;1.20;;
22955;SDS011;40888;48.148;11.526;2022-08-19T12:20:29;1.70;;;1.60;;
22955;SDS011;40888;48.148;11.526;2022-08-19T12:22:55;1.77;;;1.63;;
22955;SDS011;40888;48.148;11.526;2022-08-19T12:25:22;2.80;;;1.80;;
22955;SDS011;40888;48.148;11.526;2022-08-19T12:27:48;1.98;;;1.70;;
22955;SDS011;40888;48.148;11.526;2022-08-19T12:30:14;2.28;;;2.10;;
22955;SDS011;40888;48.148;11.526;2022-08-19T12:32:41;1.60;;;1.50;;
22955;SDS011;40888;48.148;11.526;2022-08-19T12:35:08;1.52;;;1.42;;
22955;SDS011;40888;48.148;11.526;2022-08-19T12:37:36;1.70;;;1.60;;
22955;SDS011;40888;48.148;11.526;2022-08-19T12:40:03;1.77;;;1.67;;
22955;SDS011;40888;48.148;11.526;2022-08-19T12:42:29;1.35;;;1.25;;
22955;SDS011;40888;48.148;11.526;2022-08-19T12:44:55;1.83;;;1.73;;
22955;SDS011;40888;48.148;11.526;2022-08-19T12:47:21;2.33;;;1.45;;
22955;SDS011;40888;48.148;11.526;2022-08-19T12:49:48;1.52;;;1.42;;
22955;SDS011;40888;48.148;11.526;2022-08-19T12:52:14;2.75;;;1.55;;
22955;SDS011;40888;48.148;11.526;2022-08-19T12:54:41;1.70;;;1.60;;
22955;SDS011;40888;48.148;11.526;2022-08-19T12:57:08;1.95;;;1.63;;
22955;SDS011;40888;48.148;11.526;2022-08-19T12:59:35;1.67;;;1.58;;
22955;SDS011;40888;48.148;11.526;2022-08-19T13:02:02;1.50;;;1.40;;
22955;SDS011;40888;48.148;11.526;2022-08-19T13:04:30;1.88;;;1.70;;
22955;SDS011;40888;48.148;11.526;2022-08-19T13:06:56;1.65;;;1.55;;
22955;SDS011;40888;48.148;11.526;2022-08-19T13:09:23;2.17;;;2.08;;
22955;SDS011;40888;48.148;11.526;2022-08-19T13:11:49;1.83;;;1.73;;
22955;SDS011;40888;48.148;11.526;2022-08-19T13:14:15;1.88;;;1.77;;
22955;SDS011;40888;48.148;11.526;2022-08-19T13:16:41;1.50;;;1.40;;
22955;SDS011;40888;48.148;11.526;2022-08-19T13:19:08;1.65;;;1.55;;
22955;SDS011;40888;48.148;11.526;2022-08-19T13:21:35;1.30;;;1.20;;
22955;SDS011;40888;48.148;11.526;2022-08-19T13:24:02;1.60;;;1.50;;
22955;SDS011;40888;48.148;11.526;2022-08-19T13:26:28;1.38;;;1.23;;
22955;SDS011;40888;48.148;11.526;2022-08-19T13:28:54;1.40;;;1.30;;
22955;SDS011;40888;48.148;11.526;2022-08-19T13:31:39;1.55;;;1.45;;
22955;SDS011;40888;48.148;11.526;2022-08-19T13:34:26;1.80;;;1.70;;
22955;SDS011;40888;48.148;11.526;2022-08-19T13:36:53;2.13;;;2.00;;
22955;SDS011;40888;48.148;11.526;2022-08-19T13:39:19;1.90;;;1.80;;
22955;SDS011;40888;48.148;11.526;2022-08-19T13:41:48;1.60;;;1.50;;
22955;SDS011;40888;48.148;11.526;2022-08-19T13:44:17;2.50;;;2.00;;
22955;SDS011;40888;48.148;11.526;2022-08-19T13:46:44;1.80;;;1.70;;
22955;SDS011;40888;48.148;11.526;2022-08-19T13:49:13;2.10;;;1.90;;
22955;SDS011;40888;48.148;11.526;2022-08-19T13:51:39;2.00;;;1.90;;
22955;SDS011;40888;48.148;11.526;2022-08-19T13:54:06;2.22;;;2.03;;
22955;SDS011;40888;48.148;11.526;2022-08-19T13:56:33;2.10;;;1.90;;
22955;SDS011;40888;48.148;11.526;2022-08-19T13:59:00;2.38;;;2.22;;
22955;SDS011;40888;48.148;11.526;2022-08-19T14:01:26;2.58;;;2.38;;
22955;SDS011;40888;48.148;11.526;2022-08-19T14:03:52;4.10;;;2.30;;
22955;SDS011;40888;48.148;11.526;2022-08-19T14:06:19;2.40;;;2.20;;
22955;SDS011;40888;48.148;11.526;2022-08-19T14:08:46;2.85;;;2.58;;
22955;SDS011;40888;48.148;11.526;2022-08-19T14:11:12;2.95;;;2.70;;
22955;SDS011;40888;48.148;11.526;2022-08-19T14:13:38;3.40;;;3.10;;
22955;SDS011;40888;48.148;11.526;2022-08-19T14:16:08;3.53;;;3.22;;
22955;SDS011;40888;48.148;11.526;2022-08-19T14:18:35;2.90;;;2.70;;
22955;SDS011;40888;48.148;11.526;2022-08-19T14:21:01;2.97;;;2.78;;
22955;SDS011;40888;48.148;11.526;2022-08-19T14:23:28;3.22;;;3.00;;
22955;SDS011;40888;48.148;11.526;2022-08-19T14:26:02;2.85;;;2.65;;
22955;SDS011;40888;48.148;11.526;2022-08-19T14:28:28;3.00;;;2.70;;
22955;SDS011;40888;48.148;11.526;2022-08-19T14:30:55;2.88;;;2.67;;
22955;SDS011;40888;48.148;11.526;2022-08-19T14:33:21;2.95;;;2.75;;
22955;SDS011;40888;48.148;11.526;2022-08-19T14:35:47;2.60;;;2.40;;
22955;SDS011;40888;48.148;11.526;2022-08-19T14:38:17;2.80;;;2.60;;
22955;SDS011;40888;48.148;11.526;2022-08-19T14:40:44;3.40;;;2.55;;
22955;SDS011;40888;48.148;11.526;2022-08-19T14:43:10;3.08;;;2.53;;